sensor_id;sensor_type;location;lat;lon;timestamp;P1;durP1;ratioP1;P2;durP2;ratioP2
9712;SDS011;4895;50.926;6.870;2022-11-25T00:00:32;24.80;;;4.90;;
9712;SDS011;4895;50.926;6.870;2022-11-25T00:02:58;13.30;;;4.00;;
9712;SDS011;4895;50.926;6.870;2022-11-25T00:05:24;17.27;;;4.40;;
9712;SDS011;4895;50.926;6.870;2022-11-25T00:07:49;18.00;;;4.80;;
9712;SDS011;4895;50.926;6.870;2022-11-25T00:10:15;15.73;;;3.63;;
9712;SDS011;4895;50.926;6.870;2022-11-25T00:12:40;22.07;;;4.20;;
9712;SDS011;4895;50.926;6.870;2022-11-25T00:15:06;15.23;;;4.17;;
9712;SDS011;4895;50.926;6.870;2022-11-25T00:17:31;20.27;;;4.50;;
9712;SDS011;4895;50.926;6.870;2022-11-25T00:19:57;13.30;;;3.67;;
9712;SDS011;4895;50.926;6.870;2022-11-25T00:22:25;15.10;;;4.03;;
9712;SDS011;4895;50.926;6.870;2022-11-25T00:24:51;23.93;;;4.10;;
9712;SDS011;4895;50.926;6.870;2022-11-25T00:27:16;25.33;;;5.87;;
9712;SDS011;4895;50.926;6.870;2022-11-25T00:29:41;19.63;;;4.10;;
9712;SDS011;4895;50.926;6.870;2022-11-25T00:32:07;19.53;;;4.20;;
9712;SDS011;4895;50.926;6.870;2022-11-25T00:34:32;18.10;;;4.80;;
9712;SDS011;4895;50.926;6.870;2022-11-25T00:36:57;21.00;;;4.40;;
9712;SDS011;4895;50.926;6.870;2022-11-25T00:39:23;16.47;;;4.10;;
9712;SDS011;4895;50.926;6.870;2022-11-25T00:41:49;13.40;;;3.80;;
9712;SDS011;4895;50.926;6.870;2022-11-25T00:44:33;14.20;;;3.83;;
9712;SDS011;4895;50.926;6.870;2022-11-25T00:49:30;22.63;;;5.00;;
9712;SDS011;4895;50.926;6.870;2022-11-25T00:51:55;18.67;;;4.93;;
9712;SDS011;4895;50.926;6.870;2022-11-25T00:54:21;22.13;;;4.20;;
9712;SDS011;4895;50.926;6.870;2022-11-25T00:56:46;14.10;;;3.77;;
9712;SDS011;4895;50.926;6.870;2022-11-25T00:59:12;17.60;;;4.90;;
9712;SDS011;4895;50.926;6.870;2022-11-25T01:01:37;22.97;;;4.40;;
9712;SDS011;4895;50.926;6.870;2022-11-25T01:04:03;14.30;;;3.73;;
9712;SDS011;4895;50.926;6.870;2022-11-25T01:06:29;14.33;;;3.77;;
9712;SDS011;4895;50.926;6.870;2022-11-25T01:08:54;24.30;;;4.57;;
9712;SDS011;4895;50.926;6.870;2022-11-25T01:11:20;30.17;;;4.87;;
9712;SDS011;4895;50.926;6.870;2022-11-25T01:13:47;13.53;;;4.03;;
9712;SDS011;4895;50.926;6.870;2022-11-25T01:16:14;20.93;;;4.33;;
9712;SDS011;4895;50.926;6.870;2022-11-25T01:18:41;21.13;;;4.07;;
9712;SDS011;4895;50.926;6.870;2022-11-25T01:21:08;13.43;;;3.80;;
9712;SDS011;4895;50.926;6.870;2022-11-25T01:23:40;18.90;;;3.73;;
9712;SDS011;4895;50.926;6.870;2022-11-25T01:26:08;14.97;;;4.03;;
9712;SDS011;4895;50.926;6.870;2022-11-25T01:28:35;12.33;;;3.37;;
9712;SDS011;4895;50.926;6.870;2022-11-25T01:31:04;14.97;;;4.00;;
9712;SDS011;4895;50.926;6.870;2022-11-25T01:33:31;15.83;;;4.37;;
9712;SDS011;4895;50.926;6.870;2022-11-25T01:36:00;10.83;;;3.50;;
9712;SDS011;4895;50.926;6.870;2022-11-25T01:38:30;12.13;;;3.83;;
9712;SDS011;4895;50.926;6.870;2022-11-25T01:40:56;15.17;;;3.83;;
9712;SDS011;4895;50.926;6.870;2022-11-25T01:43:22;18.17;;;4.10;;
9712;SDS011;4895;50.926;6.870;2022-11-25T01:45:47;16.60;;;4.27;;
9712;SDS011;4895;50.926;6.870;2022-11-25T01:48:35;16.60;;;3.43;;
9712;SDS011;4895;50.926;6.870;2022-11-25T01:51:03;14.90;;;4.50;;
9712;SDS011;4895;50.926;6.870;2022-11-25T01:53:29;25.80;;;4.20;;
9712;SDS011;4895;50.926;6.870;2022-11-25T01:55:55;19.20;;;4.13;;
9712;SDS011;4895;50.926;6.870;2022-11-25T01:58:27;18.37;;;4.40;;
9712;SDS011;4895;50.926;6.870;2022-11-25T02:00:54;17.20;;;4.17;;
9712;SDS011;4895;50.926;6.870;2022-11-25T02:03:21;11.07;;;3.53;;
9712;SDS011;4895;50.926;6.870;2022-11-25T02:05:57;23.17;;;5.13;;
9712;SDS011;4895;50.926;6.870;2022-11-25T02:08:27;18.23;;;4.40;;
9712;SDS011;4895;50.926;6.870;2022-11-25T02:10:53;15.33;;;4.40;;
9712;SDS011;4895;50.926;6.870;2022-11-25T02:13:20;27.00;;;4.80;;
9712;SDS011;4895;50.926;6.870;2022-11-25T02:15:46;19.30;;;4.20;;
9712;SDS011;4895;50.926;6.870;2022-11-25T02:18:12;15.20;;;4.57;;
9712;SDS011;4895;50.926;6.870;2022-11-25T02:20:37;16.23;;;4.77;;
9712;SDS011;4895;50.926;6.870;2022-11-25T02:23:07;14.30;;;4.00;;
9712;SDS011;4895;50.926;6.870;2022-11-25T02:25:41;20.87;;;3.80;;
9712;SDS011;4895;50.926;6.870;2022-11-25T02:28:08;11.20;;;3.93;;
9712;SDS011;4895;50.926;6.870;2022-11-25T02:30:35;23.43;;;4.60;;
9712;SDS011;4895;50.926;6.870;2022-11-25T02:33:01;21.80;;;4.67;;
9712;SDS011;4895;50.926;6.870;2022-11-25T02:35:37;19.47;;;3.87;;
9712;SDS011;4895;50.926;6.870;2022-11-25T02:38:18;14.50;;;4.03;;
9712;SDS011;4895;50.926;6.870;2022-11-25T02:40:49;17.93;;;4.63;;
9712;SDS011;4895;50.926;6.870;2022-11-25T02:43:21;9.73;;;3.63;;
9712;SDS011;4895;50.926;6.870;2022-11-25T02:48:28;24.10;;;4.83;;
9712;SDS011;4895;50.926;6.870;2022-11-25T02:50:55;20.70;;;5.00;;
9712;SDS011;4895;50.926;6.870;2022-11-25T02:53:20;15.80;;;4.47;;
9712;SDS011;4895;50.926;6.870;2022-11-25T02:55:45;16.63;;;4.80;;
9712;SDS011;4895;50.926;6.870;2022-11-25T02:58:11;20.33;;;4.13;;
9712;SDS011;4895;50.926;6.870;2022-11-25T03:00:37;17.60;;;4.20;;
9712;SDS011;4895;50.926;6.870;2022-11-25T03:03:02;10.10;;;3.20;;
9712;SDS011;4895;50.926;6.870;2022-11-25T03:05:28;15.60;;;4.30;;
9712;SDS011;4895;50.926;6.870;2022-11-25T03:07:53;18.30;;;4.63;;
9712;SDS011;4895;50.926;6.870;2022-11-25T03:10:19;21.53;;;4.53;;
9712;SDS011;4895;50.926;6.870;2022-11-25T03:12:44;15.50;;;4.10;;
9712;SDS011;4895;50.926;6.870;2022-11-25T03:15:10;20.30;;;4.20;;
9712;SDS011;4895;50.926;6.870;2022-11-25T03:17:35;17.13;;;4.17;;
9712;SDS011;4895;50.926;6.870;2022-11-25T03:20:01;15.70;;;3.70;;
9712;SDS011;4895;50.926;6.870;2022-11-25T03:22:26;22.17;;;4.57;;
9712;SDS011;4895;50.926;6.870;2022-11-25T03:24:51;17.87;;;4.30;;
9712;SDS011;4895;50.926;6.870;2022-11-25T03:27:17;14.60;;;3.83;;
9712;SDS011;4895;50.926;6.870;2022-11-25T03:29:42;16.80;;;5.23;;
9712;SDS011;4895;50.926;6.870;2022-11-25T03:32:07;15.43;;;4.00;;
9712;SDS011;4895;50.926;6.870;2022-11-25T03:34:33;14.83;;;6.13;;
9712;SDS011;4895;50.926;6.870;2022-11-25T03:36:58;19.40;;;4.50;;
9712;SDS011;4895;50.926;6.870;2022-11-25T03:39:24;20.20;;;4.57;;
9712;SDS011;4895;50.926;6.870;2022-11-25T03:41:49;16.00;;;4.93;;
9712;SDS011;4895;50.926;6.870;2022-11-25T03:44:15;11.03;;;4.00;;
9712;SDS011;4895;50.926;6.870;2022-11-25T03:46:40;16.53;;;4.70;;
9712;SDS011;4895;50.926;6.870;2022-11-25T03:49:05;21.13;;;4.30;;
9712;SDS011;4895;50.926;6.870;2022-11-25T03:51:31;22.60;;;5.70;;
9712;SDS011;4895;50.926;6.870;2022-11-25T03:53:56;11.97;;;4.60;;
9712;SDS011;4895;50.926;6.870;2022-11-25T03:56:21;18.30;;;5.00;;
9712;SDS011;4895;50.926;6.870;2022-11-25T03:58:47;18.60;;;5.30;;
9712;SDS011;4895;50.926;6.870;2022-11-25T04:01:12;15.73;;;4.73;;
9712;SDS011;4895;50.926;6.870;2022-11-25T04:03:38;16.90;;;4.40;;
9712;SDS011;4895;50.926;6.870;2022-11-25T04:06:03;14.10;;;4.13;;
9712;SDS011;4895;50.926;6.870;2022-11-25T04:08:28;18.57;;;5.40;;
9712;SDS011;4895;50.926;6.870;2022-11-25T04:10:54;18.50;;;4.07;;
9712;SDS011;4895;50.926;6.870;2022-11-25T04:13:19;21.07;;;3.90;;
9712;SDS011;4895;50.926;6.870;2022-11-25T04:15:45;15.07;;;3.73;;
9712;SDS011;4895;50.926;6.870;2022-11-25T04:18:12;12.77;;;3.70;;
9712;SDS011;4895;50.926;6.870;2022-11-25T04:20:38;17.07;;;4.40;;
9712;SDS011;4895;50.926;6.870;2022-11-25T04:23:04;21.20;;;4.67;;
9712;SDS011;4895;50.926;6.870;2022-11-25T04:25:33;21.10;;;4.90;;
9712;SDS011;4895;50.926;6.870;2022-11-25T04:27:59;24.60;;;4.40;;
9712;SDS011;4895;50.926;6.870;2022-11-25T04:30:24;16.27;;;3.97;;
9712;SDS011;4895;50.926;6.870;2022-11-25T04:32:50;15.30;;;4.53;;
9712;SDS011;4895;50.926;6.870;2022-11-25T04:35:15;13.20;;;3.80;;
9712;SDS011;4895;50.926;6.870;2022-11-25T04:37:41;15.13;;;4.27;;
9712;SDS011;4895;50.926;6.870;2022-11-25T04:40:06;13.70;;;4.20;;
9712;SDS011;4895;50.926;6.870;2022-11-25T04:42:32;17.33;;;4.07;;
9712;SDS011;4895;50.926;6.870;2022-11-25T04:45:00;21.10;;;4.50;;
9712;SDS011;4895;50.926;6.870;2022-11-25T04:47:28;18.03;;;4.03;;
9712;SDS011;4895;50.926;6.870;2022-11-25T04:49:53;19.13;;;4.87;;
9712;SDS011;4895;50.926;6.870;2022-11-25T04:52:19;21.83;;;4.53;;
9712;SDS011;4895;50.926;6.870;2022-11-25T04:54:44;10.63;;;3.80;;
9712;SDS011;4895;50.926;6.870;2022-11-25T04:57:13;17.40;;;3.73;;
9712;SDS011;4895;50.926;6.870;2022-11-25T04:59:39;17.57;;;4.40;;
9712;SDS011;4895;50.926;6.870;2022-11-25T05:02:26;19.93;;;4.23;;
9712;SDS011;4895;50.926;6.870;2022-11-25T05:04:52;23.17;;;5.00;;
9712;SDS011;4895;50.926;6.870;2022-11-25T05:07:19;17.53;;;4.57;;
9712;SDS011;4895;50.926;6.870;2022-11-25T05:09:46;10.10;;;3.73;;
9712;SDS011;4895;50.926;6.870;2022-11-25T05:12:13;22.50;;;3.87;;
9712;SDS011;4895;50.926;6.870;2022-11-25T05:14:40;19.97;;;3.60;;
9712;SDS011;4895;50.926;6.870;2022-11-25T05:17:06;15.90;;;4.30;;
9712;SDS011;4895;50.926;6.870;2022-11-25T05:19:32;14.97;;;4.10;;
9712;SDS011;4895;50.926;6.870;2022-11-25T05:22:00;21.07;;;4.23;;
9712;SDS011;4895;50.926;6.870;2022-11-25T05:24:25;23.43;;;4.63;;
9712;SDS011;4895;50.926;6.870;2022-11-25T05:26:50;27.20;;;5.00;;
9712;SDS011;4895;50.926;6.870;2022-11-25T05:29:16;14.90;;;3.40;;
9712;SDS011;4895;50.926;6.870;2022-11-25T05:31:41;16.57;;;4.20;;
9712;SDS011;4895;50.926;6.870;2022-11-25T05:34:07;17.90;;;4.90;;
9712;SDS011;4895;50.926;6.870;2022-11-25T05:36:32;23.53;;;5.07;;
9712;SDS011;4895;50.926;6.870;2022-11-25T05:38:57;21.07;;;4.90;;
9712;SDS011;4895;50.926;6.870;2022-11-25T05:41:23;21.33;;;4.23;;
9712;SDS011;4895;50.926;6.870;2022-11-25T05:43:48;20.93;;;4.60;;
9712;SDS011;4895;50.926;6.870;2022-11-25T05:46:14;15.60;;;4.70;;
9712;SDS011;4895;50.926;6.870;2022-11-25T05:48:39;19.23;;;4.27;;
9712;SDS011;4895;50.926;6.870;2022-11-25T05:51:05;13.90;;;4.13;;
9712;SDS011;4895;50.926;6.870;2022-11-25T05:53:31;17.23;;;4.60;;
9712;SDS011;4895;50.926;6.870;2022-11-25T05:55:57;21.10;;;4.53;;
9712;SDS011;4895;50.926;6.870;2022-11-25T05:58:24;21.43;;;5.20;;
9712;SDS011;4895;50.926;6.870;2022-11-25T06:00:50;16.90;;;4.10;;
9712;SDS011;4895;50.926;6.870;2022-11-25T06:03:15;18.53;;;5.17;;
9712;SDS011;4895;50.926;6.870;2022-11-25T06:05:41;21.20;;;4.43;;
9712;SDS011;4895;50.926;6.870;2022-11-25T06:08:06;21.43;;;4.87;;
9712;SDS011;4895;50.926;6.870;2022-11-25T06:10:32;24.50;;;4.70;;
9712;SDS011;4895;50.926;6.870;2022-11-25T06:12:57;22.93;;;4.53;;
9712;SDS011;4895;50.926;6.870;2022-11-25T06:15:23;27.30;;;5.00;;
9712;SDS011;4895;50.926;6.870;2022-11-25T06:17:48;20.13;;;6.70;;
9712;SDS011;4895;50.926;6.870;2022-11-25T06:20:14;15.80;;;4.50;;
9712;SDS011;4895;50.926;6.870;2022-11-25T06:22:39;22.10;;;4.80;;
9712;SDS011;4895;50.926;6.870;2022-11-25T06:25:06;15.90;;;5.00;;
9712;SDS011;4895;50.926;6.870;2022-11-25T06:27:32;18.60;;;5.10;;
9712;SDS011;4895;50.926;6.870;2022-11-25T06:29:57;18.50;;;5.60;;
9712;SDS011;4895;50.926;6.870;2022-11-25T06:32:22;14.83;;;4.57;;
9712;SDS011;4895;50.926;6.870;2022-11-25T06:34:49;24.10;;;5.90;;
9712;SDS011;4895;50.926;6.870;2022-11-25T06:37:14;19.03;;;5.17;;
9712;SDS011;4895;50.926;6.870;2022-11-25T06:39:39;20.57;;;5.27;;
9712;SDS011;4895;50.926;6.870;2022-11-25T06:42:05;18.87;;;5.80;;
9712;SDS011;4895;50.926;6.870;2022-11-25T06:44:30;20.30;;;5.40;;
9712;SDS011;4895;50.926;6.870;2022-11-25T06:46:55;18.80;;;5.73;;
9712;SDS011;4895;50.926;6.870;2022-11-25T06:49:21;21.20;;;5.80;;
9712;SDS011;4895;50.926;6.870;2022-11-25T06:51:47;20.07;;;5.80;;
9712;SDS011;4895;50.926;6.870;2022-11-25T06:54:13;17.33;;;5.10;;
9712;SDS011;4895;50.926;6.870;2022-11-25T06:56:39;20.37;;;5.70;;
9712;SDS011;4895;50.926;6.870;2022-11-25T06:59:05;20.87;;;6.10;;
9712;SDS011;4895;50.926;6.870;2022-11-25T07:01:30;17.93;;;4.90;;
9712;SDS011;4895;50.926;6.870;2022-11-25T07:03:59;23.53;;;5.63;;
9712;SDS011;4895;50.926;6.870;2022-11-25T07:06:27;22.17;;;5.67;;
9712;SDS011;4895;50.926;6.870;2022-11-25T07:08:53;19.70;;;5.10;;
9712;SDS011;4895;50.926;6.870;2022-11-25T07:11:20;22.37;;;4.40;;
9712;SDS011;4895;50.926;6.870;2022-11-25T07:14:05;15.73;;;5.13;;
9712;SDS011;4895;50.926;6.870;2022-11-25T07:16:35;20.70;;;6.10;;
9712;SDS011;4895;50.926;6.870;2022-11-25T07:19:02;18.37;;;4.80;;
9712;SDS011;4895;50.926;6.870;2022-11-25T07:21:29;12.67;;;5.17;;
9712;SDS011;4895;50.926;6.870;2022-11-25T07:23:56;20.50;;;4.47;;
9712;SDS011;4895;50.926;6.870;2022-11-25T07:26:24;9.97;;;4.00;;
9712;SDS011;4895;50.926;6.870;2022-11-25T07:28:54;18.70;;;4.80;;
9712;SDS011;4895;50.926;6.870;2022-11-25T07:31:35;19.47;;;5.10;;
9712;SDS011;4895;50.926;6.870;2022-11-25T07:34:03;16.93;;;5.17;;
9712;SDS011;4895;50.926;6.870;2022-11-25T07:36:30;22.17;;;5.50;;
9712;SDS011;4895;50.926;6.870;2022-11-25T07:38:57;26.20;;;5.47;;
9712;SDS011;4895;50.926;6.870;2022-11-25T07:41:24;19.23;;;4.93;;
9712;SDS011;4895;50.926;6.870;2022-11-25T07:43:51;10.97;;;5.10;;
9712;SDS011;4895;50.926;6.870;2022-11-25T07:48:51;15.07;;;4.50;;
9712;SDS011;4895;50.926;6.870;2022-11-25T07:53:53;16.07;;;4.73;;
9712;SDS011;4895;50.926;6.870;2022-11-25T07:56:20;20.63;;;5.00;;
9712;SDS011;4895;50.926;6.870;2022-11-25T07:58:46;16.47;;;5.13;;
9712;SDS011;4895;50.926;6.870;2022-11-25T08:01:12;13.07;;;3.83;;
9712;SDS011;4895;50.926;6.870;2022-11-25T08:03:38;9.53;;;3.93;;
9712;SDS011;4895;50.926;6.870;2022-11-25T08:06:05;17.07;;;4.63;;
9712;SDS011;4895;50.926;6.870;2022-11-25T08:08:32;18.70;;;3.80;;
9712;SDS011;4895;50.926;6.870;2022-11-25T08:10:58;15.17;;;3.47;;
9712;SDS011;4895;50.926;6.870;2022-11-25T08:13:23;16.90;;;3.90;;
9712;SDS011;4895;50.926;6.870;2022-11-25T08:15:50;12.37;;;3.70;;
9712;SDS011;4895;50.926;6.870;2022-11-25T08:18:16;14.07;;;3.87;;
9712;SDS011;4895;50.926;6.870;2022-11-25T08:20:41;10.17;;;3.50;;
9712;SDS011;4895;50.926;6.870;2022-11-25T08:23:07;11.00;;;3.47;;
9712;SDS011;4895;50.926;6.870;2022-11-25T08:25:32;11.60;;;4.00;;
9712;SDS011;4895;50.926;6.870;2022-11-25T08:28:03;10.53;;;3.40;;
9712;SDS011;4895;50.926;6.870;2022-11-25T08:30:29;11.47;;;4.27;;
9712;SDS011;4895;50.926;6.870;2022-11-25T08:32:54;11.90;;;4.33;;
9712;SDS011;4895;50.926;6.870;2022-11-25T08:35:20;12.00;;;4.30;;
9712;SDS011;4895;50.926;6.870;2022-11-25T08:37:46;19.70;;;3.47;;
9712;SDS011;4895;50.926;6.870;2022-11-25T08:40:11;15.23;;;4.73;;
9712;SDS011;4895;50.926;6.870;2022-11-25T08:42:37;9.83;;;3.37;;
9712;SDS011;4895;50.926;6.870;2022-11-25T08:45:03;8.60;;;3.50;;
9712;SDS011;4895;50.926;6.870;2022-11-25T08:47:29;16.10;;;4.77;;
9712;SDS011;4895;50.926;6.870;2022-11-25T08:49:54;15.40;;;4.33;;
9712;SDS011;4895;50.926;6.870;2022-11-25T08:52:20;10.77;;;4.23;;
9712;SDS011;4895;50.926;6.870;2022-11-25T08:54:46;10.20;;;4.00;;
9712;SDS011;4895;50.926;6.870;2022-11-25T08:57:11;15.13;;;3.67;;
9712;SDS011;4895;50.926;6.870;2022-11-25T08:59:37;15.70;;;4.00;;
9712;SDS011;4895;50.926;6.870;2022-11-25T09:02:03;9.60;;;3.53;;
9712;SDS011;4895;50.926;6.870;2022-11-25T09:04:28;12.60;;;5.00;;
9712;SDS011;4895;50.926;6.870;2022-11-25T09:06:54;11.67;;;4.30;;
9712;SDS011;4895;50.926;6.870;2022-11-25T09:09:19;14.20;;;4.00;;
9712;SDS011;4895;50.926;6.870;2022-11-25T09:11:45;6.10;;;3.30;;
9712;SDS011;4895;50.926;6.870;2022-11-25T09:14:10;10.90;;;3.83;;
9712;SDS011;4895;50.926;6.870;2022-11-25T09:16:36;10.93;;;3.50;;
9712;SDS011;4895;50.926;6.870;2022-11-25T09:19:01;12.27;;;3.57;;
9712;SDS011;4895;50.926;6.870;2022-11-25T09:21:26;11.13;;;3.50;;
9712;SDS011;4895;50.926;6.870;2022-11-25T09:23:52;13.27;;;3.27;;
9712;SDS011;4895;50.926;6.870;2022-11-25T09:26:26;7.03;;;2.87;;
9712;SDS011;4895;50.926;6.870;2022-11-25T09:28:53;9.00;;;3.30;;
9712;SDS011;4895;50.926;6.870;2022-11-25T09:31:19;10.33;;;3.20;;
9712;SDS011;4895;50.926;6.870;2022-11-25T09:33:45;11.50;;;2.97;;
9712;SDS011;4895;50.926;6.870;2022-11-25T09:36:12;14.83;;;4.50;;
9712;SDS011;4895;50.926;6.870;2022-11-25T09:38:38;5.73;;;2.57;;
9712;SDS011;4895;50.926;6.870;2022-11-25T09:43:41;16.13;;;3.63;;
9712;SDS011;4895;50.926;6.870;2022-11-25T09:49:47;12.70;;;3.00;;
9712;SDS011;4895;50.926;6.870;2022-11-25T09:54:48;12.60;;;2.47;;
9712;SDS011;4895;50.926;6.870;2022-11-25T09:57:18;8.03;;;2.60;;
9712;SDS011;4895;50.926;6.870;2022-11-25T10:00:00;6.60;;;2.30;;
9712;SDS011;4895;50.926;6.870;2022-11-25T10:02:34;9.47;;;2.87;;
9712;SDS011;4895;50.926;6.870;2022-11-25T10:05:04;9.43;;;2.57;;
9712;SDS011;4895;50.926;6.870;2022-11-25T10:07:40;12.20;;;3.67;;
9712;SDS011;4895;50.926;6.870;2022-11-25T10:10:13;10.70;;;2.80;;
9712;SDS011;4895;50.926;6.870;2022-11-25T10:12:43;7.80;;;2.83;;
9712;SDS011;4895;50.926;6.870;2022-11-25T10:15:18;9.60;;;3.00;;
9712;SDS011;4895;50.926;6.870;2022-11-25T10:17:48;13.40;;;2.67;;
9712;SDS011;4895;50.926;6.870;2022-11-25T10:22:48;7.53;;;2.10;;
9712;SDS011;4895;50.926;6.870;2022-11-25T10:25:22;16.30;;;3.43;;
9712;SDS011;4895;50.926;6.870;2022-11-25T10:27:59;10.10;;;2.70;;
9712;SDS011;4895;50.926;6.870;2022-11-25T10:30:25;5.43;;;2.03;;
9712;SDS011;4895;50.926;6.870;2022-11-25T10:35:51;12.13;;;2.87;;
9712;SDS011;4895;50.926;6.870;2022-11-25T10:38:34;10.63;;;2.57;;
9712;SDS011;4895;50.926;6.870;2022-11-25T10:41:03;8.93;;;2.67;;
9712;SDS011;4895;50.926;6.870;2022-11-25T10:43:30;12.37;;;2.50;;
9712;SDS011;4895;50.926;6.870;2022-11-25T10:46:18;13.33;;;3.43;;
9712;SDS011;4895;50.926;6.870;2022-11-25T10:51:15;9.33;;;2.40;;
9712;SDS011;4895;50.926;6.870;2022-11-25T10:54:06;7.77;;;2.10;;
9712;SDS011;4895;50.926;6.870;2022-11-25T10:56:56;8.57;;;2.00;;
9712;SDS011;4895;50.926;6.870;2022-11-25T10:59:36;9.73;;;2.50;;
9712;SDS011;4895;50.926;6.870;2022-11-25T11:04:48;13.77;;;2.63;;
9712;SDS011;4895;50.926;6.870;2022-11-25T11:07:15;14.63;;;3.40;;
9712;SDS011;4895;50.926;6.870;2022-11-25T11:09:40;13.90;;;3.30;;
9712;SDS011;4895;50.926;6.870;2022-11-25T11:12:07;15.53;;;3.10;;
9712;SDS011;4895;50.926;6.870;2022-11-25T11:14:36;15.97;;;3.27;;
9712;SDS011;4895;50.926;6.870;2022-11-25T11:17:01;12.03;;;2.87;;
9712;SDS011;4895;50.926;6.870;2022-11-25T11:19:28;16.40;;;3.07;;
9712;SDS011;4895;50.926;6.870;2022-11-25T11:21:54;17.67;;;3.50;;
9712;SDS011;4895;50.926;6.870;2022-11-25T11:24:28;15.13;;;3.20;;
9712;SDS011;4895;50.926;6.870;2022-11-25T11:29:33;17.77;;;2.80;;
9712;SDS011;4895;50.926;6.870;2022-11-25T11:32:03;10.00;;;2.60;;
9712;SDS011;4895;50.926;6.870;2022-11-25T11:49:00;14.07;;;2.83;;
9712;SDS011;4895;50.926;6.870;2022-11-25T12:01:43;14.47;;;2.80;;
9712;SDS011;4895;50.926;6.870;2022-11-25T12:04:39;11.40;;;3.33;;
9712;SDS011;4895;50.926;6.870;2022-11-25T12:07:10;13.63;;;3.77;;
9712;SDS011;4895;50.926;6.870;2022-11-25T12:09:47;12.40;;;3.60;;
9712;SDS011;4895;50.926;6.870;2022-11-25T12:12:19;15.07;;;2.77;;
9712;SDS011;4895;50.926;6.870;2022-11-25T12:14:49;23.80;;;3.50;;
9712;SDS011;4895;50.926;6.870;2022-11-25T12:17:17;25.67;;;3.60;;
9712;SDS011;4895;50.926;6.870;2022-11-25T12:19:51;19.27;;;4.13;;
9712;SDS011;4895;50.926;6.870;2022-11-25T12:22:29;18.27;;;3.60;;
9712;SDS011;4895;50.926;6.870;2022-11-25T12:30:05;14.50;;;2.90;;
9712;SDS011;4895;50.926;6.870;2022-11-25T12:41:42;10.77;;;3.57;;
9712;SDS011;4895;50.926;6.870;2022-11-25T12:46:46;18.33;;;3.63;;
9712;SDS011;4895;50.926;6.870;2022-11-25T13:16:54;13.93;;;2.63;;
9712;SDS011;4895;50.926;6.870;2022-11-25T13:19:21;11.73;;;3.10;;
9712;SDS011;4895;50.926;6.870;2022-11-25T13:24:36;12.93;;;2.83;;
9712;SDS011;4895;50.926;6.870;2022-11-25T13:27:02;17.00;;;3.13;;
9712;SDS011;4895;50.926;6.870;2022-11-25T13:31:55;15.87;;;3.73;;
9712;SDS011;4895;50.926;6.870;2022-11-25T13:34:29;14.83;;;3.63;;
9712;SDS011;4895;50.926;6.870;2022-11-25T13:36:56;11.93;;;2.70;;
9712;SDS011;4895;50.926;6.870;2022-11-25T13:42:33;23.13;;;2.80;;
9712;SDS011;4895;50.926;6.870;2022-11-25T13:58:17;16.17;;;2.57;;
9712;SDS011;4895;50.926;6.870;2022-11-25T14:05:54;19.63;;;3.43;;
9712;SDS011;4895;50.926;6.870;2022-11-25T14:08:44;12.57;;;2.80;;
9712;SDS011;4895;50.926;6.870;2022-11-25T14:20:16;17.77;;;4.57;;
9712;SDS011;4895;50.926;6.870;2022-11-25T14:26:00;18.27;;;3.40;;
9712;SDS011;4895;50.926;6.870;2022-11-25T14:30:47;14.97;;;3.17;;
9712;SDS011;4895;50.926;6.870;2022-11-25T14:33:38;19.17;;;3.20;;
9712;SDS011;4895;50.926;6.870;2022-11-25T14:36:20;12.77;;;3.10;;
9712;SDS011;4895;50.926;6.870;2022-11-25T14:38:51;14.07;;;3.20;;
9712;SDS011;4895;50.926;6.870;2022-11-25T14:41:21;11.53;;;3.40;;
9712;SDS011;4895;50.926;6.870;2022-11-25T14:43:49;21.20;;;3.23;;
9712;SDS011;4895;50.926;6.870;2022-11-25T14:46:19;12.73;;;3.40;;
9712;SDS011;4895;50.926;6.870;2022-11-25T14:48:51;17.87;;;3.97;;
9712;SDS011;4895;50.926;6.870;2022-11-25T14:51:24;9.07;;;2.80;;
9712;SDS011;4895;50.926;6.870;2022-11-25T14:53:51;15.83;;;3.27;;
9712;SDS011;4895;50.926;6.870;2022-11-25T14:56:21;19.17;;;2.60;;
9712;SDS011;4895;50.926;6.870;2022-11-25T14:58:50;13.03;;;2.70;;
9712;SDS011;4895;50.926;6.870;2022-11-25T15:01:18;16.50;;;3.23;;
9712;SDS011;4895;50.926;6.870;2022-11-25T15:03:49;14.27;;;3.40;;
9712;SDS011;4895;50.926;6.870;2022-11-25T15:06:15;10.83;;;2.50;;
9712;SDS011;4895;50.926;6.870;2022-11-25T15:08:53;7.80;;;2.50;;
9712;SDS011;4895;50.926;6.870;2022-11-25T15:11:24;16.73;;;2.87;;
9712;SDS011;4895;50.926;6.870;2022-11-25T15:16:28;14.10;;;3.23;;
9712;SDS011;4895;50.926;6.870;2022-11-25T15:19:01;20.17;;;2.60;;
9712;SDS011;4895;50.926;6.870;2022-11-25T15:21:29;18.17;;;3.07;;
9712;SDS011;4895;50.926;6.870;2022-11-25T15:23:56;16.67;;;2.80;;
9712;SDS011;4895;50.926;6.870;2022-11-25T15:26:22;18.83;;;3.10;;
9712;SDS011;4895;50.926;6.870;2022-11-25T15:28:56;9.90;;;2.50;;
9712;SDS011;4895;50.926;6.870;2022-11-25T15:31:28;15.50;;;3.13;;
9712;SDS011;4895;50.926;6.870;2022-11-25T15:33:55;16.10;;;2.90;;
9712;SDS011;4895;50.926;6.870;2022-11-25T15:36:22;16.53;;;3.33;;
9712;SDS011;4895;50.926;6.870;2022-11-25T15:38:48;14.07;;;3.37;;
9712;SDS011;4895;50.926;6.870;2022-11-25T15:41:32;16.53;;;3.13;;
9712;SDS011;4895;50.926;6.870;2022-11-25T15:43:59;17.70;;;2.70;;
9712;SDS011;4895;50.926;6.870;2022-11-25T15:46:26;14.83;;;3.27;;
9712;SDS011;4895;50.926;6.870;2022-11-25T15:48:52;22.57;;;3.70;;
9712;SDS011;4895;50.926;6.870;2022-11-25T15:51:56;13.60;;;2.83;;
9712;SDS011;4895;50.926;6.870;2022-11-25T15:56:53;16.40;;;3.80;;
9712;SDS011;4895;50.926;6.870;2022-11-25T16:18:17;17.43;;;3.60;;
9712;SDS011;4895;50.926;6.870;2022-11-25T16:20:50;16.50;;;2.83;;
9712;SDS011;4895;50.926;6.870;2022-11-25T16:23:18;9.60;;;2.90;;
9712;SDS011;4895;50.926;6.870;2022-11-25T16:25:48;13.03;;;3.20;;
9712;SDS011;4895;50.926;6.870;2022-11-25T16:28:19;11.70;;;3.50;;
9712;SDS011;4895;50.926;6.870;2022-11-25T16:30:45;14.23;;;3.33;;
9712;SDS011;4895;50.926;6.870;2022-11-25T16:33:11;13.90;;;3.30;;
9712;SDS011;4895;50.926;6.870;2022-11-25T16:35:36;8.90;;;2.93;;
9712;SDS011;4895;50.926;6.870;2022-11-25T16:38:01;15.80;;;3.40;;
9712;SDS011;4895;50.926;6.870;2022-11-25T16:40:27;14.30;;;3.10;;
9712;SDS011;4895;50.926;6.870;2022-11-25T16:42:53;16.40;;;3.10;;
9712;SDS011;4895;50.926;6.870;2022-11-25T16:45:20;9.13;;;2.53;;
9712;SDS011;4895;50.926;6.870;2022-11-25T16:47:47;10.93;;;2.80;;
9712;SDS011;4895;50.926;6.870;2022-11-25T16:50:13;16.00;;;2.70;;
9712;SDS011;4895;50.926;6.870;2022-11-25T16:52:39;20.80;;;3.40;;
9712;SDS011;4895;50.926;6.870;2022-11-25T16:55:05;19.80;;;3.23;;
9712;SDS011;4895;50.926;6.870;2022-11-25T16:57:31;15.60;;;3.10;;
9712;SDS011;4895;50.926;6.870;2022-11-25T16:59:57;15.23;;;2.80;;
9712;SDS011;4895;50.926;6.870;2022-11-25T17:02:24;16.37;;;3.67;;
9712;SDS011;4895;50.926;6.870;2022-11-25T17:04:50;8.20;;;2.87;;
9712;SDS011;4895;50.926;6.870;2022-11-25T17:07:17;17.43;;;3.50;;
9712;SDS011;4895;50.926;6.870;2022-11-25T17:09:42;12.57;;;3.00;;
9712;SDS011;4895;50.926;6.870;2022-11-25T17:12:10;12.80;;;2.50;;
9712;SDS011;4895;50.926;6.870;2022-11-25T17:14:39;14.60;;;2.87;;
9712;SDS011;4895;50.926;6.870;2022-11-25T17:17:04;15.57;;;3.07;;
9712;SDS011;4895;50.926;6.870;2022-11-25T17:19:30;9.30;;;2.83;;
9712;SDS011;4895;50.926;6.870;2022-11-25T17:21:55;9.67;;;2.50;;
9712;SDS011;4895;50.926;6.870;2022-11-25T17:24:21;12.30;;;2.60;;
9712;SDS011;4895;50.926;6.870;2022-11-25T17:26:48;13.00;;;3.00;;
9712;SDS011;4895;50.926;6.870;2022-11-25T17:29:18;9.87;;;2.97;;
9712;SDS011;4895;50.926;6.870;2022-11-25T17:31:46;16.50;;;2.77;;
9712;SDS011;4895;50.926;6.870;2022-11-25T17:34:15;15.30;;;3.27;;
9712;SDS011;4895;50.926;6.870;2022-11-25T17:36:44;11.03;;;3.63;;
9712;SDS011;4895;50.926;6.870;2022-11-25T17:39:10;11.90;;;3.63;;
9712;SDS011;4895;50.926;6.870;2022-11-25T17:41:38;19.63;;;3.23;;
9712;SDS011;4895;50.926;6.870;2022-11-25T17:44:08;16.03;;;2.97;;
9712;SDS011;4895;50.926;6.870;2022-11-25T17:46:57;16.80;;;3.43;;
9712;SDS011;4895;50.926;6.870;2022-11-25T17:49:23;11.60;;;3.40;;
9712;SDS011;4895;50.926;6.870;2022-11-25T17:51:49;14.00;;;3.20;;
9712;SDS011;4895;50.926;6.870;2022-11-25T17:54:15;12.70;;;3.70;;